createdAt,value
2022-10-28T00:00:56.200Z,2.30
2022-10-28T00:03:35.711Z,2.50
2022-10-28T00:06:16.505Z,2.27
2022-10-28T00:08:51.735Z,2.23
2022-10-28T00:11:30.285Z,2.30
2022-10-28T00:14:10.209Z,2.57
2022-10-28T00:16:46.709Z,1.97
2022-10-28T00:19:28.309Z,2.20
2022-10-28T00:22:26.429Z,2.60
2022-10-28T00:25:07.491Z,2.10
2022-10-28T00:27:44.119Z,2.30
2022-10-28T00:30:20.962Z,2.93
2022-10-28T00:33:01.697Z,2.67
2022-10-28T00:36:02.224Z,2.40
2022-10-28T00:38:39.269Z,2.17
2022-10-28T00:41:17.300Z,2.20
2022-10-28T00:43:58.430Z,2.00
2022-10-28T00:46:42.616Z,2.40
2022-10-28T00:49:22.869Z,2.70
2022-10-28T00:52:12.141Z,2.40
2022-10-28T00:54:49.225Z,2.53
2022-10-28T00:57:30.155Z,2.17
2022-10-28T01:00:17.145Z,2.77
2022-10-28T01:02:52.755Z,2.23
2022-10-28T01:05:34.505Z,2.37
2022-10-28T01:08:14.599Z,2.20
2022-10-28T01:11:34.603Z,2.47
2022-10-28T01:14:30.731Z,2.43
2022-10-28T01:17:33.236Z,1.80
2022-10-28T01:21:09.353Z,2.13
2022-10-28T01:24:05.759Z,2.20
2022-10-28T01:27:16.702Z,2.40
2022-10-28T01:30:22.600Z,2.00
2022-10-28T01:33:20.525Z,1.83
2022-10-28T01:36:10.040Z,1.67
2022-10-28T01:39:08.030Z,2.47
2022-10-28T01:41:57.854Z,2.27
2022-10-28T01:44:43.731Z,2.07
2022-10-28T01:47:31.984Z,2.03
2022-10-28T01:50:25.284Z,2.10
2022-10-28T01:53:21.927Z,2.30
2022-10-28T01:56:05.444Z,2.30
2022-10-28T01:58:46.862Z,2.20
2022-10-28T02:01:27.546Z,2.00
2022-10-28T02:04:05.240Z,2.20
2022-10-28T02:07:04.298Z,2.23
2022-10-28T02:10:16.251Z,2.13
2022-10-28T02:13:09.188Z,2.27
2022-10-28T02:16:01.164Z,2.37
2022-10-28T02:19:05.214Z,2.30
2022-10-28T02:22:02.658Z,2.20
2022-10-28T02:25:00.866Z,1.80
2022-10-28T02:27:48.148Z,2.27
2022-10-28T02:30:32.567Z,2.23
2022-10-28T02:33:20.687Z,2.57
2022-10-28T02:36:15.022Z,2.10
2022-10-28T02:38:59.109Z,2.20
2022-10-28T02:41:41.865Z,2.00
2022-10-28T02:44:29.116Z,2.10
2022-10-28T02:47:18.668Z,2.40
2022-10-28T02:50:03.089Z,1.97
2022-10-28T02:52:39.293Z,2.57
2022-10-28T02:55:22.723Z,2.20
2022-10-28T02:58:10.005Z,2.40
2022-10-28T03:00:50.742Z,2.23
2022-10-28T03:03:29.392Z,1.90
2022-10-28T03:06:06.836Z,2.20
2022-10-28T03:08:42.965Z,2.40
2022-10-28T03:11:28.191Z,1.83
2022-10-28T03:14:13.292Z,2.33
2022-10-28T03:17:00.804Z,1.97
2022-10-28T03:19:41.893Z,2.10
2022-10-28T03:22:20.099Z,2.00
2022-10-28T03:24:58.515Z,2.57
2022-10-28T03:27:53.663Z,2.20
2022-10-28T03:30:34.396Z,2.53
2022-10-28T03:33:15.060Z,2.33
2022-10-28T03:35:50.413Z,2.40
2022-10-28T03:38:37.588Z,2.90
2022-10-28T03:41:20.802Z,2.30
2022-10-28T03:44:04.899Z,2.00
2022-10-28T03:46:41.169Z,2.17
2022-10-28T03:49:23.859Z,2.40
2022-10-28T03:52:19.971Z,2.00
2022-10-28T03:54:59.853Z,2.37
2022-10-28T03:57:35.343Z,2.53
2022-10-28T04:00:19.843Z,2.27
2022-10-28T04:02:56.379Z,2.37
2022-10-28T04:05:31.009Z,2.03
2022-10-28T04:08:05.985Z,2.40
2022-10-28T04:10:44.906Z,2.20
2022-10-28T04:13:21.194Z,2.33
2022-10-28T04:15:57.371Z,2.07
2022-10-28T04:18:32.142Z,2.33
2022-10-28T04:21:08.342Z,1.83
2022-10-28T04:23:44.446Z,2.00
2022-10-28T04:26:18.773Z,2.20
2022-10-28T04:28:54.288Z,2.37
2022-10-28T04:31:30.133Z,2.57
2022-10-28T04:34:05.838Z,2.33
2022-10-28T04:36:39.718Z,2.07
2022-10-28T04:39:13.704Z,2.40
2022-10-28T04:41:47.945Z,2.30
2022-10-28T04:44:21.890Z,2.30
2022-10-28T04:47:00.320Z,2.60
2022-10-28T04:49:36.666Z,2.37
2022-10-28T04:52:15.734Z,2.43
2022-10-28T04:54:52.398Z,2.20
2022-10-28T04:57:26.585Z,2.67
2022-10-28T05:00:01.015Z,2.20
2022-10-28T05:02:36.819Z,2.10
2022-10-28T05:05:11.590Z,2.13
2022-10-28T05:07:46.495Z,2.30
2022-10-28T05:10:22.530Z,2.17
2022-10-28T05:12:57.742Z,2.27
2022-10-28T05:15:36.486Z,2.30
2022-10-28T05:18:12.335Z,2.67
2022-10-28T05:20:47.939Z,2.47
2022-10-28T05:23:30.797Z,2.27
2022-10-28T05:26:06.027Z,1.80
2022-10-28T05:28:40.078Z,2.20
2022-10-28T05:31:14.240Z,2.27
2022-10-28T05:33:53.402Z,2.33
2022-10-28T05:36:27.635Z,2.50
2022-10-28T05:39:03.163Z,2.17
2022-10-28T05:41:38.895Z,2.53
2022-10-28T05:44:13.357Z,2.53
2022-10-28T05:46:48.113Z,2.67
2022-10-28T05:49:24.696Z,2.50
2022-10-28T05:52:01.371Z,2.13
2022-10-28T05:54:35.532Z,2.53
2022-10-28T05:57:09.757Z,2.27
2022-10-28T05:59:45.217Z,2.60
2022-10-28T06:02:19.541Z,2.30
2022-10-28T06:04:55.341Z,2.50
2022-10-28T06:07:37.091Z,2.40
2022-10-28T06:10:12.659Z,2.40
2022-10-28T06:12:48.869Z,2.63
2022-10-28T06:15:27.456Z,2.63
2022-10-28T06:18:06.510Z,2.87
2022-10-28T06:20:42.325Z,2.47
2022-10-28T06:23:16.492Z,2.53
2022-10-28T06:25:51.870Z,2.63
2022-10-28T06:28:30.207Z,2.70
2022-10-28T06:31:09.453Z,3.13
2022-10-28T06:33:43.817Z,2.30
2022-10-28T06:36:21.021Z,2.50
2022-10-28T06:38:55.484Z,2.30
2022-10-28T06:41:33.255Z,2.87
2022-10-28T06:44:08.015Z,2.70
2022-10-28T06:46:45.150Z,2.53
2022-10-28T06:49:20.021Z,2.27
2022-10-28T06:51:56.385Z,2.80
2022-10-28T06:54:32.766Z,2.60
2022-10-28T06:57:08.974Z,2.43
2022-10-28T06:59:43.389Z,3.33
2022-10-28T07:02:22.073Z,2.80
2022-10-28T07:04:57.683Z,2.70
2022-10-28T07:07:38.354Z,2.87
2022-10-28T07:10:26.102Z,2.50
2022-10-28T07:13:01.233Z,2.50
2022-10-28T07:15:36.442Z,2.40
2022-10-28T07:18:15.925Z,3.03
2022-10-28T07:20:50.746Z,2.67
2022-10-28T07:23:27.334Z,2.67
2022-10-28T07:26:05.276Z,2.23
2022-10-28T07:28:39.606Z,2.63
2022-10-28T07:31:17.396Z,2.50
2022-10-28T07:33:54.962Z,2.60
2022-10-28T07:36:29.201Z,2.57
2022-10-28T07:39:05.746Z,2.77
2022-10-28T07:41:44.424Z,2.70
2022-10-28T07:44:18.396Z,2.27
2022-10-28T07:46:55.661Z,2.40
2022-10-28T07:49:33.036Z,2.67
2022-10-28T07:52:07.938Z,2.77
2022-10-28T07:54:45.146Z,2.90
2022-10-28T07:58:00.881Z,2.80
2022-10-28T08:00:44.025Z,2.53
2022-10-28T08:03:22.086Z,2.53
2022-10-28T08:06:03.018Z,2.23
2022-10-28T08:08:46.319Z,2.30
2022-10-28T08:11:26.460Z,2.13
2022-10-28T08:14:00.875Z,2.60
2022-10-28T08:16:38.359Z,2.47
2022-10-28T08:19:19.398Z,2.63
2022-10-28T08:22:02.189Z,2.57
2022-10-28T08:24:37.313Z,2.50
2022-10-28T08:27:18.767Z,2.70
2022-10-28T08:29:56.295Z,2.70
2022-10-28T08:32:30.890Z,2.83
2022-10-28T08:35:05.550Z,2.60
2022-10-28T08:37:39.964Z,3.10
2022-10-28T08:40:16.030Z,2.83
2022-10-28T08:43:06.185Z,2.67
2022-10-28T08:45:52.313Z,2.40
2022-10-28T08:48:32.806Z,2.60
2022-10-28T08:51:19.998Z,2.43
2022-10-28T08:54:00.111Z,2.43
2022-10-28T08:56:38.817Z,2.45
2022-10-28T08:59:21.717Z,2.50
2022-10-28T09:02:04.814Z,2.53
2022-10-28T09:04:44.430Z,2.97
2022-10-28T09:07:23.520Z,2.40
2022-10-28T09:09:58.566Z,2.73
2022-10-28T09:12:47.733Z,2.65
2022-10-28T09:15:36.866Z,2.50
2022-10-28T09:18:22.588Z,2.22
2022-10-28T09:20:59.863Z,2.38
2022-10-28T09:23:49.289Z,2.92
2022-10-28T09:26:49.049Z,2.75
2022-10-28T09:29:44.164Z,2.28
2022-10-28T09:32:30.564Z,2.22
2022-10-28T09:35:13.664Z,2.38
2022-10-28T09:37:55.145Z,2.95
2022-10-28T09:40:39.356Z,2.40
2022-10-28T09:43:31.645Z,2.88
2022-10-28T09:46:13.023Z,2.72
2022-10-28T09:48:53.081Z,2.70
2022-10-28T09:51:45.167Z,2.63
2022-10-28T09:54:20.255Z,2.28
2022-10-28T09:56:57.045Z,2.20
2022-10-28T09:59:33.536Z,2.80
2022-10-28T10:02:08.193Z,2.45
2022-10-28T10:04:47.792Z,2.35
2022-10-28T10:07:41.374Z,2.75
2022-10-28T10:10:29.428Z,2.50
2022-10-28T10:13:09.419Z,2.45
2022-10-28T10:15:51.265Z,2.47
2022-10-28T10:18:33.757Z,2.45
2022-10-28T10:21:20.679Z,2.30
2022-10-28T10:23:59.973Z,2.58
2022-10-28T10:26:35.925Z,2.22
2022-10-28T10:29:19.924Z,2.63
2022-10-28T10:32:27.257Z,2.40
2022-10-28T10:35:22.878Z,2.30
2022-10-28T10:38:02.160Z,2.63
2022-10-28T10:40:40.386Z,2.70
2022-10-28T10:43:25.585Z,2.67
2022-10-28T10:46:06.223Z,3.25
2022-10-28T10:48:41.006Z,2.42
2022-10-28T10:51:25.970Z,2.40
2022-10-28T10:54:02.925Z,2.50
2022-10-28T10:56:37.971Z,2.35
2022-10-28T10:59:27.656Z,2.35
2022-10-28T11:02:02.543Z,2.25
2022-10-28T11:04:37.040Z,2.40
2022-10-28T11:07:17.745Z,2.28
2022-10-28T11:09:58.828Z,2.53
2022-10-28T11:12:37.833Z,2.17
2022-10-28T11:15:27.491Z,2.78
2022-10-28T11:18:04.931Z,3.00
2022-10-28T11:20:59.163Z,3.10
2022-10-28T11:23:55.117Z,2.47
2022-10-28T11:26:36.959Z,2.25
2022-10-28T11:29:17.331Z,2.38
2022-10-28T11:33:01.371Z,2.22
2022-10-28T11:36:08.962Z,2.33
2022-10-28T11:39:24.803Z,2.42
2022-10-28T11:42:36.878Z,2.28
2022-10-28T11:45:25.814Z,2.10
2022-10-28T11:48:23.633Z,2.33
2022-10-28T11:51:12.539Z,2.63
2022-10-28T11:54:28.654Z,2.30
2022-10-28T11:57:11.771Z,2.08
2022-10-28T12:00:35.137Z,2.70
2022-10-28T12:04:04.899Z,2.33
2022-10-28T12:07:30.960Z,2.15
2022-10-28T12:10:35.460Z,2.47
2022-10-28T12:13:26.014Z,2.53
2022-10-28T12:16:16.119Z,2.25
2022-10-28T12:19:02.911Z,2.50
2022-10-28T12:21:43.050Z,2.70
2022-10-28T12:24:23.534Z,3.08
2022-10-28T12:27:06.195Z,2.67
2022-10-28T12:29:48.464Z,2.40
2022-10-28T12:32:36.144Z,2.33
2022-10-28T12:35:21.174Z,2.30
2022-10-28T12:38:03.712Z,2.28
2022-10-28T12:40:48.420Z,2.30
2022-10-28T12:43:58.653Z,2.13
2022-10-28T12:46:56.083Z,2.40
2022-10-28T12:49:47.390Z,2.33
2022-10-28T12:52:45.953Z,2.47
2022-10-28T12:55:42.220Z,2.63
2022-10-28T12:58:24.258Z,2.67
2022-10-28T13:01:04.102Z,2.78
2022-10-28T13:03:43.524Z,1.92
2022-10-28T13:06:57.654Z,2.15
2022-10-28T13:10:01.871Z,2.55
2022-10-28T13:13:13.659Z,2.47
2022-10-28T13:16:15.002Z,2.75
2022-10-28T13:19:44.304Z,2.38
2022-10-28T13:22:45.853Z,2.17
2022-10-28T13:25:49.212Z,2.17
2022-10-28T13:28:29.656Z,2.10
2022-10-28T13:31:17.106Z,2.50
2022-10-28T13:33:57.964Z,2.33
2022-10-28T13:36:36.687Z,2.13
2022-10-28T13:39:41.524Z,2.50
2022-10-28T13:42:56.437Z,2.20
2022-10-28T13:45:54.320Z,2.13
2022-10-28T13:48:52.864Z,2.70
2022-10-28T13:51:35.785Z,2.30
2022-10-28T13:54:30.209Z,2.33
2022-10-28T13:57:10.957Z,2.08
2022-10-28T13:59:59.284Z,2.22
2022-10-28T14:02:41.306Z,2.10
2022-10-28T14:05:23.426Z,3.05
2022-10-28T14:08:06.383Z,2.53
2022-10-28T14:10:42.755Z,2.35
2022-10-28T14:13:24.477Z,2.80
2022-10-28T14:16:28.246Z,2.25
2022-10-28T14:19:12.299Z,2.05
2022-10-28T14:22:03.442Z,2.60
2022-10-28T14:24:41.303Z,2.42
2022-10-28T14:27:44.856Z,2.83
2022-10-28T14:30:26.391Z,2.50
2022-10-28T14:33:23.531Z,2.45
2022-10-28T14:36:25.267Z,3.00
2022-10-28T14:39:42.437Z,2.22
2022-10-28T14:42:53.758Z,2.08
2022-10-28T14:45:43.030Z,2.47
2022-10-28T14:48:53.019Z,2.53
2022-10-28T14:51:31.517Z,2.67
2022-10-28T14:54:16.442Z,2.67
2022-10-28T14:57:10.427Z,2.60
2022-10-28T14:59:49.109Z,2.45
2022-10-28T15:02:27.850Z,2.67
2022-10-28T15:05:09.758Z,2.58
2022-10-28T15:07:47.078Z,2.78
2022-10-28T15:10:29.373Z,2.25
2022-10-28T15:13:07.342Z,3.00
2022-10-28T15:15:59.309Z,2.28
2022-10-28T15:18:37.523Z,2.67
2022-10-28T15:21:17.866Z,2.40
2022-10-28T15:24:04.272Z,2.72
2022-10-28T15:26:38.508Z,2.47
2022-10-28T15:29:12.993Z,2.47
2022-10-28T15:32:18.009Z,2.67
2022-10-28T15:34:51.921Z,3.00
2022-10-28T15:37:30.371Z,2.17
2022-10-28T15:40:25.915Z,2.78
2022-10-28T15:43:05.986Z,2.97
2022-10-28T15:45:43.347Z,2.55
2022-10-28T15:48:29.541Z,3.00
2022-10-28T15:51:18.326Z,2.70
2022-10-28T15:54:04.357Z,2.45
2022-10-28T15:57:23.822Z,2.50
2022-10-28T16:00:22.868Z,2.20
2022-10-28T16:03:06.708Z,2.42
2022-10-28T16:05:52.543Z,2.90
2022-10-28T16:08:33.125Z,2.33
2022-10-28T16:11:17.785Z,2.40
2022-10-28T16:13:52.767Z,2.50
2022-10-28T16:16:33.653Z,2.45
2022-10-28T16:19:18.273Z,2.45
2022-10-28T16:21:55.245Z,2.20
2022-10-28T16:24:32.745Z,2.83
2022-10-28T16:27:19.828Z,2.55
2022-10-28T16:29:55.662Z,2.70
2022-10-28T16:32:35.416Z,2.08
2022-10-28T16:35:19.086Z,2.35
2022-10-28T16:37:59.403Z,2.58
2022-10-28T16:40:51.979Z,2.75
2022-10-28T16:43:29.148Z,2.55
2022-10-28T16:46:06.266Z,2.58
2022-10-28T16:48:40.883Z,2.80
2022-10-28T16:51:18.477Z,2.38
2022-10-28T16:53:57.908Z,2.35
2022-10-28T16:56:33.063Z,3.10
2022-10-28T16:59:07.663Z,2.60
2022-10-28T17:01:46.774Z,2.65
2022-10-28T17:04:24.191Z,2.33
2022-10-28T17:07:01.339Z,2.55
2022-10-28T17:09:38.660Z,2.38
2022-10-28T17:12:16.215Z,2.80
2022-10-28T17:14:53.438Z,2.85
2022-10-28T17:17:28.307Z,2.75
2022-10-28T17:20:06.989Z,2.35
2022-10-28T17:22:44.156Z,2.55
2022-10-28T17:25:23.827Z,2.85
2022-10-28T17:27:59.275Z,2.47
2022-10-28T17:30:41.178Z,3.15
2022-10-28T17:33:16.052Z,3.20
2022-10-28T17:35:51.558Z,2.13
2022-10-28T17:38:26.079Z,3.20
2022-10-28T17:41:01.950Z,2.67
2022-10-28T17:43:41.567Z,2.88
2022-10-28T17:46:23.356Z,2.70
2022-10-28T17:48:58.713Z,2.70
2022-10-28T17:51:34.857Z,3.20
2022-10-28T17:54:10.314Z,2.72
2022-10-28T17:56:50.113Z,3.00
2022-10-28T17:59:25.091Z,2.33
2022-10-28T18:02:03.084Z,2.90
2022-10-28T18:04:40.888Z,2.70
2022-10-28T18:07:15.347Z,2.67
2022-10-28T18:09:52.085Z,3.20
2022-10-28T18:12:28.600Z,3.35
2022-10-28T18:15:03.468Z,2.80
2022-10-28T18:17:37.843Z,2.60
2022-10-28T18:20:14.770Z,2.50
2022-10-28T18:22:52.823Z,3.08
2022-10-28T18:25:30.059Z,2.80
2022-10-28T18:28:11.743Z,3.13
2022-10-28T18:30:49.672Z,2.80
2022-10-28T18:33:24.142Z,2.88
2022-10-28T18:36:00.941Z,2.73
2022-10-28T18:38:36.115Z,2.90
2022-10-28T18:41:14.949Z,3.10
2022-10-28T18:43:57.652Z,2.70
2022-10-28T18:46:38.304Z,2.63
2022-10-28T18:49:13.745Z,2.90
2022-10-28T18:51:51.904Z,2.72
2022-10-28T18:54:27.932Z,2.97
2022-10-28T18:57:05.178Z,2.43
2022-10-28T19:00:12.587Z,2.67
2022-10-28T19:02:46.375Z,2.90
2022-10-28T19:05:25.987Z,3.05
2022-10-28T19:08:05.286Z,2.80
2022-10-28T19:10:44.965Z,2.78
2022-10-28T19:13:20.237Z,3.23
2022-10-28T19:15:56.638Z,3.20
2022-10-28T19:18:37.078Z,2.93
2022-10-28T19:21:18.393Z,2.93
2022-10-28T19:23:56.046Z,2.63
2022-10-28T19:26:32.809Z,3.17
2022-10-28T19:29:07.696Z,2.60
2022-10-28T19:31:43.701Z,2.87
2022-10-28T19:34:20.733Z,3.40
2022-10-28T19:36:55.306Z,3.47
2022-10-28T19:39:31.039Z,2.33
2022-10-28T19:42:10.139Z,3.60
2022-10-28T19:44:45.092Z,2.90
2022-10-28T19:47:25.726Z,3.17
2022-10-28T19:50:00.098Z,3.20
2022-10-28T19:52:37.074Z,3.37
2022-10-28T19:55:15.071Z,3.07
2022-10-28T19:57:53.055Z,2.97
2022-10-28T20:00:27.273Z,2.90
2022-10-28T20:03:03.275Z,3.27
2022-10-28T20:05:37.591Z,3.83
2022-10-28T20:08:12.639Z,2.80
2022-10-28T20:10:47.378Z,3.13
2022-10-28T20:13:22.404Z,3.37
2022-10-28T20:16:03.125Z,2.90
2022-10-28T20:18:38.970Z,3.57
2022-10-28T20:21:17.896Z,3.10
2022-10-28T20:23:56.944Z,3.33
2022-10-28T20:26:34.785Z,3.30
2022-10-28T20:29:10.194Z,3.40
2022-10-28T20:31:44.712Z,3.17
2022-10-28T20:34:25.138Z,3.47
2022-10-28T20:36:59.519Z,3.63
2022-10-28T20:39:34.014Z,3.50
2022-10-28T20:42:08.430Z,3.77
2022-10-28T20:44:43.252Z,3.33
2022-10-28T20:47:18.319Z,3.03
2022-10-28T20:49:54.586Z,3.27
2022-10-28T20:52:32.959Z,3.23
2022-10-28T20:55:08.830Z,2.87
2022-10-28T20:57:44.442Z,3.03
2022-10-28T21:00:30.283Z,3.37
2022-10-28T21:03:06.618Z,3.30
2022-10-28T21:05:46.202Z,3.47
2022-10-28T21:08:23.136Z,3.23
2022-10-28T21:10:59.480Z,3.63
2022-10-28T21:13:36.163Z,3.20
2022-10-28T21:16:14.395Z,3.20
2022-10-28T21:18:49.433Z,3.33
2022-10-28T21:21:32.600Z,3.03
2022-10-28T21:24:09.249Z,2.63
2022-10-28T21:26:48.423Z,3.87
2022-10-28T21:29:27.328Z,3.73
2022-10-28T21:32:03.030Z,3.30
2022-10-28T21:34:37.240Z,3.13
2022-10-28T21:37:14.165Z,3.30
2022-10-28T21:39:59.982Z,3.40
2022-10-28T21:42:38.181Z,2.87
2022-10-28T21:45:13.161Z,3.47
2022-10-28T21:47:52.710Z,3.43
2022-10-28T21:50:29.189Z,3.73
2022-10-28T21:53:05.209Z,3.40
2022-10-28T21:55:47.230Z,3.20
2022-10-28T21:58:23.668Z,3.57
2022-10-28T22:01:08.577Z,3.40
2022-10-28T22:03:42.731Z,3.43
2022-10-28T22:06:18.862Z,2.93
2022-10-28T22:08:59.468Z,3.67
2022-10-28T22:11:33.254Z,3.43
2022-10-28T22:14:11.043Z,3.57
2022-10-28T22:16:45.824Z,3.37
2022-10-28T22:19:19.931Z,4.23
2022-10-28T22:21:57.618Z,3.40
2022-10-28T22:24:37.817Z,3.40
2022-10-28T22:27:12.514Z,3.10
2022-10-28T22:29:50.007Z,3.40
2022-10-28T22:32:25.173Z,3.37
2022-10-28T22:35:07.661Z,3.70
2022-10-28T22:37:42.768Z,2.97
2022-10-28T22:40:19.178Z,2.93
2022-10-28T22:42:54.706Z,3.43
2022-10-28T22:45:29.241Z,3.57
2022-10-28T22:48:03.666Z,3.20
2022-10-28T22:50:39.251Z,3.27
2022-10-28T22:53:14.793Z,3.93
2022-10-28T22:55:54.918Z,3.60
2022-10-28T22:58:29.891Z,3.17
2022-10-28T23:01:12.225Z,3.50
2022-10-28T23:03:50.276Z,3.37
2022-10-28T23:06:26.690Z,4.27
2022-10-28T23:09:01.142Z,3.97
2022-10-28T23:11:37.627Z,3.73
2022-10-28T23:14:12.234Z,3.33
2022-10-28T23:16:46.204Z,3.43
2022-10-28T23:19:22.408Z,3.87
2022-10-28T23:21:56.665Z,3.43
2022-10-28T23:24:31.457Z,3.60
2022-10-28T23:27:07.190Z,3.90
2022-10-28T23:29:42.510Z,3.57
2022-10-28T23:32:19.942Z,4.13
2022-10-28T23:34:55.216Z,3.13
2022-10-28T23:37:33.603Z,3.47
2022-10-28T23:40:13.347Z,3.43
2022-10-28T23:42:52.655Z,3.40
2022-10-28T23:45:30.993Z,3.63
2022-10-28T23:48:10.421Z,3.23
2022-10-28T23:50:45.189Z,3.47
2022-10-28T23:53:20.316Z,3.60
2022-10-28T23:55:55.959Z,3.70
2022-10-28T23:58:37.200Z,3.50
